GLO2053 SBJP-SBGL
Flight info
| Callsign | GLO2053 |
|---|---|
| Flight time | 2h 41m |
| Altitude | 36000 |
| Route | MUDSI UN857 MOLSU |
| Aircraft | B738/M-SDFGIKLORWXY/LB1 |
Departure
| Time | 2026-04-20 13:29 |
|---|---|
| Airport | Presidente Castro Pinto International Airport (SBJP) |
Arrival
| Time | 2026-04-20 16:11 |
|---|---|
| Airport | Rio Galeão – Tom Jobim International Airport (SBGL) |
| Time | Latitude | Longitude | Altitude | Speed | Heading |
|---|---|---|---|---|---|
| 2026-04-20 12:57 | -7.14583 | -34.94973 | 221 ft | 0 kts | 134° |
| 2026-04-20 13:19 | -7.14582 | -34.94975 | 221 ft | 2 kts | 134° |
| 2026-04-20 13:19 | -7.14564 | -34.94994 | 222 ft | 4 kts | 136° |
| 2026-04-20 13:20 | -7.14553 | -34.95006 | 221 ft | 4 kts | 215° |
| 2026-04-20 13:20 | -7.14548 | -34.95002 | 221 ft | 0 kts | 225° |
| 2026-04-20 13:23 | -7.14549 | -34.95002 | 221 ft | 1 kts | 225° |
| 2026-04-20 13:23 | -7.14560 | -34.95014 | 222 ft | 4 kts | 225° |
| 2026-04-20 13:23 | -7.14595 | -34.95044 | 220 ft | 8 kts | 208° |
| 2026-04-20 13:24 | -7.14647 | -34.95036 | 220 ft | 8 kts | 141° |
| 2026-04-20 13:24 | -7.14688 | -34.95001 | 220 ft | 8 kts | 152° |
| 2026-04-20 13:24 | -7.14736 | -34.95013 | 222 ft | 8 kts | 222° |
| 2026-04-20 13:24 | -7.14776 | -34.95051 | 222 ft | 9 kts | 226° |
| 2026-04-20 13:25 | -7.14802 | -34.95114 | 222 ft | 12 kts | 290° |
| 2026-04-20 13:25 | -7.14736 | -34.95185 | 221 ft | 16 kts | 315° |
| 2026-04-20 13:25 | -7.14647 | -34.95274 | 220 ft | 19 kts | 315° |
| 2026-04-20 13:25 | -7.14554 | -34.95366 | 220 ft | 18 kts | 315° |
| 2026-04-20 13:26 | -7.14464 | -34.95455 | 220 ft | 18 kts | 315° |
| 2026-04-20 13:26 | -7.14378 | -34.95541 | 220 ft | 17 kts | 315° |
| 2026-04-20 13:26 | -7.14294 | -34.95623 | 221 ft | 17 kts | 316° |
| 2026-04-20 13:26 | -7.14214 | -34.95703 | 221 ft | 16 kts | 315° |
| 2026-04-20 13:27 | -7.14138 | -34.95779 | 222 ft | 14 kts | 316° |
| 2026-04-20 13:27 | -7.14059 | -34.95818 | 224 ft | 11 kts | 346° |
| 2026-04-20 13:27 | -7.14045 | -34.95845 | 223 ft | 4 kts | 234° |
| 2026-04-20 13:27 | -7.14073 | -34.95841 | 222 ft | 5 kts | 144° |
| 2026-04-20 13:28 | -7.14078 | -34.95837 | 222 ft | 0 kts | 137° |
| 2026-04-20 13:28 | -7.14082 | -34.95833 | 224 ft | 5 kts | 137° |
| 2026-04-20 13:28 | -7.14293 | -34.95625 | 221 ft | 83 kts | 135° |
| 2026-04-20 13:28 | -7.14884 | -34.95038 | 222 ft | 153 kts | 135° |
| 2026-04-20 13:29 | -7.15754 | -34.94157 | 485 ft | 191 kts | 135° |
| 2026-04-20 13:29 | -7.16692 | -34.93197 | 1456 ft | 190 kts | 135° |
| 2026-04-20 13:29 | -7.17612 | -34.92261 | 2425 ft | 193 kts | 136° |
| 2026-04-20 13:29 | -7.18630 | -34.91242 | 2765 ft | 221 kts | 136° |
| 2026-04-20 13:30 | -7.19775 | -34.90096 | 3084 ft | 240 kts | 136° |
| 2026-04-20 13:30 | -7.21001 | -34.88867 | 3410 ft | 261 kts | 136° |
| 2026-04-20 13:30 | -7.22307 | -34.87552 | 4105 ft | 268 kts | 136° |
| 2026-04-20 13:30 | -7.23628 | -34.86220 | 4979 ft | 269 kts | 135° |
| 2026-04-20 13:31 | -7.24957 | -34.84880 | 5798 ft | 273 kts | 136° |
| 2026-04-20 13:31 | -7.26308 | -34.83519 | 6593 ft | 276 kts | 135° |
| 2026-04-20 13:31 | -7.27674 | -34.82140 | 7394 ft | 279 kts | 135° |
| 2026-04-20 13:31 | -7.29055 | -34.80747 | 8173 ft | 283 kts | 135° |
| 2026-04-20 13:32 | -7.30452 | -34.79338 | 8748 ft | 285 kts | 135° |
| 2026-04-20 13:32 | -7.31861 | -34.77916 | 9008 ft | 289 kts | 135° |
| 2026-04-20 13:32 | -7.33283 | -34.76480 | 8991 ft | 289 kts | 135° |
| 2026-04-20 13:32 | -7.34699 | -34.75050 | 9000 ft | 288 kts | 135° |
| 2026-04-20 13:33 | -7.36114 | -34.73622 | 9010 ft | 288 kts | 135° |
| 2026-04-20 13:33 | -7.37506 | -34.72215 | 9002 ft | 288 kts | 135° |
| 2026-04-20 13:33 | -7.38920 | -34.70787 | 9003 ft | 288 kts | 135° |
| 2026-04-20 13:33 | -7.40335 | -34.69358 | 9021 ft | 288 kts | 135° |
| 2026-04-20 13:34 | -7.41749 | -34.67929 | 9000 ft | 288 kts | 135° |
| 2026-04-20 13:34 | -7.43166 | -34.66498 | 9025 ft | 288 kts | 135° |
| 2026-04-20 13:34 | -7.44582 | -34.65067 | 8996 ft | 289 kts | 135° |
| 2026-04-20 13:34 | -7.46003 | -34.63632 | 8997 ft | 289 kts | 135° |
| 2026-04-20 13:35 | -7.47424 | -34.62198 | 9000 ft | 289 kts | 136° |
| 2026-04-20 13:35 | -7.49082 | -34.61107 | 8992 ft | 286 kts | 165° |
| 2026-04-20 13:35 | -7.51042 | -34.60823 | 9393 ft | 286 kts | 178° |
| 2026-04-20 13:35 | -7.53049 | -34.60732 | 10126 ft | 289 kts | 179° |
| 2026-04-20 13:36 | -7.55107 | -34.60657 | 10521 ft | 308 kts | 179° |
| 2026-04-20 13:36 | -7.57321 | -34.60574 | 10862 ft | 325 kts | 179° |
| 2026-04-20 13:36 | -7.59598 | -34.60480 | 11504 ft | 330 kts | 178° |
| 2026-04-20 13:36 | -7.61901 | -34.60378 | 12241 ft | 333 kts | 178° |
| 2026-04-20 13:37 | -7.64228 | -34.60271 | 12965 ft | 336 kts | 178° |
| 2026-04-20 13:37 | -7.66578 | -34.60161 | 13646 ft | 340 kts | 178° |
| 2026-04-20 13:37 | -7.68951 | -34.60050 | 14316 ft | 343 kts | 178° |
| 2026-04-20 13:37 | -7.71348 | -34.59993 | 14974 ft | 346 kts | 182° |
| 2026-04-20 13:38 | -7.73766 | -34.60089 | 15627 ft | 349 kts | 184° |
| 2026-04-20 13:38 | -7.76207 | -34.60230 | 16263 ft | 353 kts | 184° |
| 2026-04-20 13:38 | -7.78633 | -34.60365 | 16872 ft | 356 kts | 184° |
| 2026-04-20 13:38 | -7.81123 | -34.60489 | 17479 ft | 359 kts | 183° |
| 2026-04-20 13:39 | -7.83629 | -34.60602 | 18072 ft | 363 kts | 183° |
| 2026-04-20 13:39 | -7.86166 | -34.60713 | 18651 ft | 366 kts | 183° |
| 2026-04-20 13:39 | -7.88723 | -34.60824 | 19218 ft | 369 kts | 183° |
| 2026-04-20 13:39 | -7.91301 | -34.60936 | 19772 ft | 372 kts | 183° |
| 2026-04-20 13:40 | -7.93897 | -34.61049 | 20320 ft | 375 kts | 183° |
| 2026-04-20 13:40 | -7.96521 | -34.61164 | 20841 ft | 379 kts | 183° |
| 2026-04-20 13:40 | -7.99162 | -34.61279 | 21354 ft | 382 kts | 183° |
| 2026-04-20 13:40 | -8.01823 | -34.61395 | 21855 ft | 385 kts | 183° |
| 2026-04-20 13:41 | -8.04507 | -34.61525 | 22345 ft | 387 kts | 186° |
| 2026-04-20 13:41 | -8.06263 | -34.61846 | 22616 ft | 389 kts | 200° |
| 2026-04-20 13:41 | -8.08774 | -34.62866 | 23113 ft | 390 kts | 204° |
| 2026-04-20 13:41 | -8.11280 | -34.63938 | 23571 ft | 393 kts | 204° |
| 2026-04-20 13:42 | -8.13803 | -34.65015 | 23993 ft | 396 kts | 203° |
| 2026-04-20 13:42 | -8.18929 | -34.67174 | 24842 ft | 401 kts | 203° |
| 2026-04-20 13:42 | -8.21520 | -34.68253 | 25258 ft | 404 kts | 203° |
| 2026-04-20 13:43 | -8.24125 | -34.69335 | 25658 ft | 406 kts | 203° |
| 2026-04-20 13:43 | -8.26751 | -34.70422 | 26041 ft | 409 kts | 203° |
| 2026-04-20 13:43 | -8.29386 | -34.71512 | 26406 ft | 411 kts | 203° |
| 2026-04-20 13:43 | -8.32047 | -34.72612 | 26787 ft | 414 kts | 203° |
| 2026-04-20 13:44 | -8.34717 | -34.73716 | 27145 ft | 416 kts | 203° |
| 2026-04-20 13:44 | -8.37404 | -34.74827 | 27493 ft | 418 kts | 203° |
| 2026-04-20 13:44 | -8.40102 | -34.75944 | 27832 ft | 421 kts | 203° |
| 2026-04-20 13:44 | -8.42819 | -34.77068 | 28166 ft | 423 kts | 203° |
| 2026-04-20 13:45 | -8.45554 | -34.78200 | 28484 ft | 425 kts | 203° |
| 2026-04-20 13:45 | -8.48291 | -34.79332 | 28798 ft | 427 kts | 203° |
| 2026-04-20 13:45 | -8.51053 | -34.80476 | 29101 ft | 429 kts | 203° |
| 2026-04-20 13:45 | -8.53787 | -34.81608 | 29395 ft | 431 kts | 203° |
| 2026-04-20 13:46 | -8.56568 | -34.82760 | 29685 ft | 433 kts | 203° |
| 2026-04-20 13:46 | -8.59363 | -34.83918 | 29964 ft | 435 kts | 203° |
| 2026-04-20 13:46 | -8.62167 | -34.85079 | 30229 ft | 437 kts | 203° |
| 2026-04-20 13:46 | -8.64993 | -34.86250 | 30495 ft | 439 kts | 203° |
| 2026-04-20 13:47 | -8.67824 | -34.87423 | 30754 ft | 441 kts | 203° |
| 2026-04-20 13:47 | -8.70660 | -34.88599 | 30998 ft | 442 kts | 203° |
| 2026-04-20 13:47 | -8.73521 | -34.89785 | 31240 ft | 444 kts | 203° |
| 2026-04-20 13:47 | -8.76380 | -34.90971 | 31473 ft | 446 kts | 203° |
| 2026-04-20 13:48 | -8.79258 | -34.92164 | 31703 ft | 447 kts | 203° |
| 2026-04-20 13:48 | -8.82140 | -34.93359 | 31922 ft | 449 kts | 203° |
| 2026-04-20 13:48 | -8.85037 | -34.94561 | 32140 ft | 451 kts | 203° |
| 2026-04-20 13:48 | -8.87941 | -34.95766 | 32340 ft | 452 kts | 203° |
| 2026-04-20 13:49 | -8.90858 | -34.96977 | 32555 ft | 453 kts | 203° |
| 2026-04-20 13:49 | -8.93774 | -34.98187 | 32822 ft | 453 kts | 203° |
| 2026-04-20 13:49 | -8.96685 | -34.99396 | 33131 ft | 451 kts | 203° |
| 2026-04-20 13:49 | -8.99585 | -35.00601 | 33424 ft | 450 kts | 203° |
| 2026-04-20 13:50 | -9.02481 | -35.01803 | 33663 ft | 450 kts | 203° |
| 2026-04-20 13:50 | -9.05382 | -35.03009 | 33903 ft | 450 kts | 203° |
| 2026-04-20 13:50 | -9.08201 | -35.04363 | 34144 ft | 449 kts | 208° |
| 2026-04-20 13:50 | -9.10931 | -35.05901 | 34405 ft | 448 kts | 211° |
| 2026-04-20 13:51 | -9.13610 | -35.07504 | 34640 ft | 448 kts | 211° |
| 2026-04-20 13:51 | -9.16278 | -35.09122 | 34856 ft | 447 kts | 211° |
| 2026-04-20 13:51 | -9.18955 | -35.10734 | 35072 ft | 447 kts | 211° |
| 2026-04-20 13:51 | -9.21637 | -35.12327 | 35309 ft | 446 kts | 211° |
| 2026-04-20 13:52 | -9.24317 | -35.13901 | 35523 ft | 446 kts | 210° |
| 2026-04-20 13:52 | -9.26973 | -35.15447 | 35720 ft | 446 kts | 210° |
| 2026-04-20 13:52 | -9.29661 | -35.17005 | 35921 ft | 445 kts | 210° |
| 2026-04-20 13:52 | -9.32354 | -35.18562 | 35997 ft | 447 kts | 210° |
| 2026-04-20 13:53 | -9.37771 | -35.21692 | 35996 ft | 448 kts | 210° |
| 2026-04-20 13:53 | -9.43144 | -35.24799 | 35993 ft | 442 kts | 210° |
| 2026-04-20 13:54 | -9.48471 | -35.27882 | 35997 ft | 440 kts | 210° |
| 2026-04-20 13:54 | -9.53767 | -35.30950 | 36000 ft | 438 kts | 210° |
| 2026-04-20 13:55 | -9.59058 | -35.34015 | 36003 ft | 438 kts | 210° |
| 2026-04-20 13:55 | -9.64348 | -35.37081 | 36007 ft | 438 kts | 210° |
| 2026-04-20 13:56 | -9.69648 | -35.40154 | 36004 ft | 440 kts | 210° |
| 2026-04-20 13:56 | -9.74977 | -35.43245 | 36002 ft | 442 kts | 210° |
| 2026-04-20 13:57 | -9.80320 | -35.46345 | 36003 ft | 444 kts | 210° |
| 2026-04-20 13:57 | -9.85689 | -35.49462 | 36002 ft | 445 kts | 210° |
| 2026-04-20 13:58 | -9.91030 | -35.52563 | 35999 ft | 446 kts | 210° |
| 2026-04-20 13:58 | -9.96427 | -35.55698 | 36003 ft | 447 kts | 210° |
| 2026-04-20 13:59 | -10.01824 | -35.58834 | 36005 ft | 447 kts | 210° |
| 2026-04-20 13:59 | -10.07223 | -35.61973 | 36000 ft | 447 kts | 210° |
| 2026-04-20 14:00 | -10.12609 | -35.65105 | 35998 ft | 446 kts | 210° |
| 2026-04-20 14:00 | -10.17991 | -35.68236 | 35997 ft | 445 kts | 210° |
| 2026-04-20 14:01 | -10.23353 | -35.71357 | 36002 ft | 444 kts | 210° |
| 2026-04-20 14:01 | -10.28704 | -35.74473 | 35999 ft | 443 kts | 210° |
| 2026-04-20 14:02 | -10.34047 | -35.77586 | 36003 ft | 442 kts | 210° |
| 2026-04-20 14:02 | -10.39380 | -35.80694 | 36001 ft | 442 kts | 210° |
| 2026-04-20 14:03 | -10.44705 | -35.83803 | 36004 ft | 441 kts | 210° |
| 2026-04-20 14:03 | -10.49986 | -35.86889 | 36004 ft | 441 kts | 210° |
| 2026-04-20 14:04 | -10.55308 | -35.90001 | 36005 ft | 441 kts | 210° |
| 2026-04-20 14:04 | -10.60636 | -35.93117 | 36001 ft | 442 kts | 210° |
| 2026-04-20 14:05 | -10.65959 | -35.96233 | 36002 ft | 442 kts | 210° |
| 2026-04-20 14:05 | -10.71299 | -35.99358 | 36001 ft | 443 kts | 210° |
| 2026-04-20 14:06 | -10.76637 | -36.02484 | 36003 ft | 443 kts | 210° |
| 2026-04-20 14:06 | -10.81983 | -36.05617 | 36002 ft | 444 kts | 210° |
| 2026-04-20 14:07 | -10.87330 | -36.08750 | 36001 ft | 444 kts | 210° |
| 2026-04-20 14:07 | -10.92688 | -36.11892 | 35999 ft | 444 kts | 210° |
| 2026-04-20 14:08 | -10.98009 | -36.15014 | 36001 ft | 444 kts | 210° |
| 2026-04-20 14:08 | -11.03367 | -36.18159 | 36000 ft | 444 kts | 210° |
| 2026-04-20 14:09 | -11.08722 | -36.21303 | 36001 ft | 444 kts | 210° |
| 2026-04-20 14:09 | -11.14086 | -36.24439 | 36000 ft | 444 kts | 209° |
| 2026-04-20 14:10 | -11.19568 | -36.27345 | 36005 ft | 444 kts | 207° |
| 2026-04-20 14:10 | -11.25087 | -36.30166 | 36000 ft | 444 kts | 207° |
| 2026-04-20 14:11 | -11.30598 | -36.33013 | 35998 ft | 444 kts | 207° |
| 2026-04-20 14:11 | -11.36084 | -36.35876 | 35998 ft | 443 kts | 208° |
| 2026-04-20 14:12 | -11.41570 | -36.38751 | 35998 ft | 443 kts | 208° |
| 2026-04-20 14:12 | -11.47050 | -36.41625 | 36000 ft | 443 kts | 208° |
| 2026-04-20 14:13 | -11.52529 | -36.44498 | 35999 ft | 443 kts | 208° |
| 2026-04-20 14:13 | -11.57970 | -36.47353 | 36001 ft | 443 kts | 208° |
| 2026-04-20 14:14 | -11.63450 | -36.50228 | 35998 ft | 443 kts | 208° |
| 2026-04-20 14:14 | -11.68927 | -36.53104 | 36000 ft | 443 kts | 208° |
| 2026-04-20 14:15 | -11.74410 | -36.55985 | 36003 ft | 443 kts | 208° |
| 2026-04-20 14:15 | -11.79890 | -36.58864 | 36001 ft | 443 kts | 208° |
| 2026-04-20 14:16 | -11.85363 | -36.61741 | 36000 ft | 443 kts | 208° |
| 2026-04-20 14:16 | -11.90846 | -36.64626 | 36005 ft | 443 kts | 208° |
| 2026-04-20 14:17 | -11.96328 | -36.67511 | 36002 ft | 443 kts | 208° |
| 2026-04-20 14:17 | -12.01815 | -36.70400 | 36001 ft | 443 kts | 208° |
| 2026-04-20 14:18 | -12.07258 | -36.73267 | 36001 ft | 443 kts | 208° |
| 2026-04-20 14:18 | -12.12743 | -36.76157 | 35998 ft | 443 kts | 208° |
| 2026-04-20 14:19 | -12.18228 | -36.79050 | 35998 ft | 443 kts | 208° |
| 2026-04-20 14:19 | -12.23712 | -36.81943 | 36000 ft | 443 kts | 208° |
| 2026-04-20 14:20 | -12.29200 | -36.84839 | 36000 ft | 443 kts | 208° |
| 2026-04-20 14:20 | -12.34680 | -36.87733 | 36002 ft | 443 kts | 208° |
| 2026-04-20 14:21 | -12.40160 | -36.90629 | 36002 ft | 443 kts | 208° |
| 2026-04-20 14:21 | -12.45605 | -36.93509 | 36000 ft | 443 kts | 208° |
| 2026-04-20 14:22 | -12.51081 | -36.96408 | 36001 ft | 443 kts | 208° |
| 2026-04-20 14:22 | -12.56559 | -36.99310 | 36002 ft | 443 kts | 208° |
| 2026-04-20 14:23 | -12.62038 | -37.02213 | 36002 ft | 443 kts | 208° |
| 2026-04-20 14:23 | -12.67510 | -37.05114 | 36000 ft | 443 kts | 208° |
| 2026-04-20 14:24 | -12.72983 | -37.08017 | 36002 ft | 443 kts | 208° |
| 2026-04-20 14:24 | -12.78460 | -37.10923 | 36001 ft | 443 kts | 208° |
| 2026-04-20 14:25 | -12.83934 | -37.13830 | 36003 ft | 443 kts | 208° |
| 2026-04-20 14:25 | -12.89406 | -37.16737 | 36000 ft | 443 kts | 208° |
| 2026-04-20 14:26 | -12.94875 | -37.19644 | 36000 ft | 443 kts | 208° |
| 2026-04-20 14:26 | -13.00344 | -37.22552 | 36003 ft | 443 kts | 208° |
| 2026-04-20 14:27 | -13.05818 | -37.25465 | 36000 ft | 443 kts | 208° |
| 2026-04-20 14:27 | -13.11290 | -37.28377 | 36001 ft | 443 kts | 208° |
| 2026-04-20 14:28 | -13.16763 | -37.31293 | 36004 ft | 443 kts | 208° |
| 2026-04-20 14:28 | -13.22197 | -37.34191 | 36001 ft | 443 kts | 208° |
| 2026-04-20 14:29 | -13.27663 | -37.37108 | 36001 ft | 443 kts | 208° |
| 2026-04-20 14:29 | -13.33134 | -37.40029 | 35998 ft | 443 kts | 208° |
| 2026-04-20 14:30 | -13.38604 | -37.42951 | 36001 ft | 443 kts | 208° |
| 2026-04-20 14:30 | -13.44070 | -37.45873 | 36001 ft | 443 kts | 208° |
| 2026-04-20 14:31 | -13.49539 | -37.48797 | 36001 ft | 443 kts | 208° |
| 2026-04-20 14:31 | -13.55010 | -37.51724 | 35998 ft | 443 kts | 208° |
| 2026-04-20 14:32 | -13.60476 | -37.54651 | 36001 ft | 443 kts | 208° |
| 2026-04-20 14:32 | -13.65939 | -37.57576 | 36002 ft | 443 kts | 208° |
| 2026-04-20 14:33 | -13.71403 | -37.60505 | 36002 ft | 443 kts | 208° |
| 2026-04-20 14:33 | -13.76869 | -37.63436 | 36002 ft | 443 kts | 208° |
| 2026-04-20 14:34 | -13.82333 | -37.66366 | 36002 ft | 443 kts | 208° |
| 2026-04-20 14:34 | -13.86880 | -37.68807 | 36002 ft | 443 kts | 208° |
| 2026-04-20 14:35 | -13.93263 | -37.72235 | 35998 ft | 443 kts | 208° |
| 2026-04-20 14:35 | -13.98687 | -37.75149 | 36004 ft | 443 kts | 208° |
| 2026-04-20 14:36 | -14.04148 | -37.78085 | 36000 ft | 443 kts | 208° |
| 2026-04-20 14:36 | -14.08725 | -37.80547 | 36000 ft | 443 kts | 208° |
| 2026-04-20 14:37 | -14.14186 | -37.83486 | 36000 ft | 443 kts | 208° |
| 2026-04-20 14:37 | -14.19614 | -37.86408 | 36003 ft | 443 kts | 208° |
| 2026-04-20 14:38 | -14.25069 | -37.89347 | 36001 ft | 443 kts | 208° |
| 2026-04-20 14:38 | -14.30531 | -37.92291 | 36003 ft | 443 kts | 208° |
| 2026-04-20 14:39 | -14.35989 | -37.95235 | 35998 ft | 443 kts | 208° |
| 2026-04-20 14:39 | -14.41451 | -37.98182 | 36001 ft | 443 kts | 208° |
| 2026-04-20 14:40 | -14.46903 | -38.01126 | 36000 ft | 443 kts | 208° |
| 2026-04-20 14:40 | -14.52360 | -38.04074 | 36004 ft | 443 kts | 208° |
| 2026-04-20 14:41 | -14.57824 | -38.07027 | 35999 ft | 443 kts | 208° |
| 2026-04-20 14:41 | -14.63274 | -38.09975 | 36002 ft | 443 kts | 208° |
| 2026-04-20 14:42 | -14.68695 | -38.12909 | 36001 ft | 443 kts | 208° |
| 2026-04-20 14:42 | -14.74150 | -38.15862 | 36004 ft | 443 kts | 208° |
| 2026-04-20 14:43 | -14.79604 | -38.18817 | 36000 ft | 443 kts | 208° |
| 2026-04-20 14:43 | -14.85063 | -38.21776 | 36000 ft | 443 kts | 208° |
| 2026-04-20 14:44 | -14.90515 | -38.24734 | 36006 ft | 443 kts | 208° |
| 2026-04-20 14:44 | -14.95966 | -38.27693 | 35999 ft | 443 kts | 208° |
| 2026-04-20 14:45 | -15.01424 | -38.30657 | 36004 ft | 443 kts | 208° |
| 2026-04-20 14:45 | -15.06879 | -38.33614 | 36000 ft | 443 kts | 208° |
| 2026-04-20 14:46 | -15.12330 | -38.36569 | 36004 ft | 443 kts | 208° |
| 2026-04-20 14:46 | -15.17786 | -38.39528 | 36001 ft | 443 kts | 208° |
| 2026-04-20 14:47 | -15.23206 | -38.42471 | 36003 ft | 443 kts | 208° |
| 2026-04-20 14:48 | -15.31387 | -38.46917 | 36003 ft | 443 kts | 208° |
| 2026-04-20 14:48 | -15.36839 | -38.49882 | 36006 ft | 443 kts | 208° |
| 2026-04-20 14:49 | -15.42289 | -38.52848 | 35999 ft | 443 kts | 208° |
| 2026-04-20 14:49 | -15.47742 | -38.55817 | 36002 ft | 443 kts | 208° |
| 2026-04-20 14:50 | -15.53191 | -38.58786 | 36002 ft | 443 kts | 208° |
| 2026-04-20 14:50 | -15.58642 | -38.61757 | 36000 ft | 443 kts | 208° |
| 2026-04-20 14:51 | -15.64096 | -38.64732 | 36002 ft | 443 kts | 208° |
| 2026-04-20 14:51 | -15.69546 | -38.67707 | 36001 ft | 443 kts | 208° |
| 2026-04-20 14:52 | -15.74998 | -38.70685 | 36002 ft | 443 kts | 208° |
| 2026-04-20 14:52 | -15.80443 | -38.73661 | 36001 ft | 442 kts | 208° |
| 2026-04-20 14:53 | -15.85888 | -38.76638 | 36001 ft | 442 kts | 208° |
| 2026-04-20 14:53 | -15.91301 | -38.79598 | 36004 ft | 442 kts | 208° |
| 2026-04-20 14:54 | -15.96751 | -38.82581 | 36001 ft | 442 kts | 208° |
| 2026-04-20 14:54 | -16.02198 | -38.85565 | 36004 ft | 442 kts | 208° |
| 2026-04-20 14:55 | -16.07641 | -38.88549 | 36000 ft | 442 kts | 208° |
| 2026-04-20 14:55 | -16.13086 | -38.91536 | 36004 ft | 442 kts | 208° |
| 2026-04-20 14:56 | -16.18524 | -38.94521 | 35998 ft | 442 kts | 208° |
| 2026-04-20 14:56 | -16.23970 | -38.97510 | 36000 ft | 442 kts | 208° |
| 2026-04-20 14:57 | -16.29449 | -39.00441 | 36002 ft | 442 kts | 207° |
| 2026-04-20 14:57 | -16.34930 | -39.03350 | 36003 ft | 442 kts | 207° |
| 2026-04-20 14:58 | -16.40408 | -39.06271 | 36000 ft | 442 kts | 207° |
| 2026-04-20 14:58 | -16.45880 | -39.09210 | 36001 ft | 442 kts | 208° |
| 2026-04-20 14:59 | -16.51304 | -39.12247 | 36003 ft | 442 kts | 209° |
| 2026-04-20 14:59 | -16.56680 | -39.15290 | 36001 ft | 443 kts | 209° |
| 2026-04-20 15:00 | -16.62097 | -39.18345 | 36002 ft | 443 kts | 209° |
| 2026-04-20 15:00 | -16.67520 | -39.21396 | 36000 ft | 443 kts | 209° |
| 2026-04-20 15:01 | -16.72946 | -39.24449 | 36002 ft | 443 kts | 209° |
| 2026-04-20 15:01 | -16.78365 | -39.27500 | 35999 ft | 443 kts | 209° |
| 2026-04-20 15:02 | -16.83790 | -39.30557 | 36003 ft | 443 kts | 209° |
| 2026-04-20 15:02 | -16.89207 | -39.33611 | 35997 ft | 443 kts | 209° |
| 2026-04-20 15:03 | -16.94629 | -39.36671 | 36001 ft | 443 kts | 209° |
| 2026-04-20 15:03 | -17.00050 | -39.39732 | 36006 ft | 443 kts | 209° |
| 2026-04-20 15:04 | -17.05469 | -39.42792 | 35998 ft | 443 kts | 209° |
| 2026-04-20 15:04 | -17.10860 | -39.45836 | 36001 ft | 443 kts | 209° |
| 2026-04-20 15:05 | -17.16277 | -39.48898 | 36003 ft | 443 kts | 209° |
| 2026-04-20 15:05 | -17.21694 | -39.51962 | 36000 ft | 443 kts | 209° |
| 2026-04-20 15:06 | -17.27119 | -39.55033 | 36001 ft | 443 kts | 209° |
| 2026-04-20 15:06 | -17.32531 | -39.58098 | 36001 ft | 443 kts | 209° |
| 2026-04-20 15:07 | -17.37948 | -39.61169 | 35998 ft | 443 kts | 209° |
| 2026-04-20 15:07 | -17.43365 | -39.64242 | 36005 ft | 443 kts | 209° |
| 2026-04-20 15:08 | -17.48774 | -39.67313 | 36002 ft | 442 kts | 209° |
| 2026-04-20 15:08 | -17.54190 | -39.70389 | 36003 ft | 442 kts | 209° |
| 2026-04-20 15:09 | -17.59601 | -39.73465 | 36002 ft | 443 kts | 209° |
| 2026-04-20 15:09 | -17.65016 | -39.76545 | 36002 ft | 443 kts | 209° |
| 2026-04-20 15:10 | -17.70390 | -39.79604 | 36000 ft | 443 kts | 209° |
| 2026-04-20 15:10 | -17.75800 | -39.82686 | 36002 ft | 443 kts | 209° |
| 2026-04-20 15:11 | -17.81211 | -39.85770 | 36002 ft | 443 kts | 209° |
| 2026-04-20 15:11 | -17.86625 | -39.88858 | 36004 ft | 443 kts | 209° |
| 2026-04-20 15:12 | -17.92029 | -39.91944 | 36001 ft | 443 kts | 209° |
| 2026-04-20 15:12 | -17.97446 | -39.95038 | 36006 ft | 443 kts | 209° |
| 2026-04-20 15:13 | -18.02852 | -39.98124 | 36003 ft | 443 kts | 209° |
| 2026-04-20 15:13 | -18.08272 | -40.01197 | 36004 ft | 443 kts | 209° |
| 2026-04-20 15:14 | -18.13695 | -40.04271 | 36001 ft | 443 kts | 209° |
| 2026-04-20 15:14 | -18.19110 | -40.07345 | 36001 ft | 443 kts | 209° |
| 2026-04-20 15:15 | -18.24527 | -40.10424 | 36000 ft | 443 kts | 209° |
| 2026-04-20 15:15 | -18.29946 | -40.13508 | 36001 ft | 442 kts | 209° |
| 2026-04-20 15:16 | -18.35361 | -40.16591 | 36000 ft | 442 kts | 209° |
| 2026-04-20 15:16 | -18.40771 | -40.19673 | 36004 ft | 442 kts | 209° |
| 2026-04-20 15:17 | -18.46185 | -40.22760 | 36002 ft | 442 kts | 209° |
| 2026-04-20 15:17 | -18.51598 | -40.25849 | 36005 ft | 442 kts | 209° |
| 2026-04-20 15:18 | -18.56978 | -40.28921 | 36000 ft | 443 kts | 209° |
| 2026-04-20 15:18 | -18.62388 | -40.32012 | 36002 ft | 443 kts | 209° |
| 2026-04-20 15:19 | -18.67801 | -40.35107 | 36003 ft | 443 kts | 209° |
| 2026-04-20 15:19 | -18.73220 | -40.38209 | 36002 ft | 443 kts | 209° |
| 2026-04-20 15:20 | -18.78634 | -40.41309 | 36001 ft | 443 kts | 209° |
| 2026-04-20 15:20 | -18.84047 | -40.44411 | 36003 ft | 443 kts | 209° |
| 2026-04-20 15:21 | -18.89466 | -40.47519 | 36001 ft | 443 kts | 209° |
| 2026-04-20 15:21 | -18.94877 | -40.50625 | 36001 ft | 443 kts | 209° |
| 2026-04-20 15:22 | -19.00295 | -40.53737 | 36004 ft | 443 kts | 209° |
| 2026-04-20 15:22 | -19.05714 | -40.56852 | 36000 ft | 443 kts | 209° |
| 2026-04-20 15:23 | -19.11129 | -40.59967 | 35998 ft | 443 kts | 209° |
| 2026-04-20 15:23 | -19.16542 | -40.63083 | 36003 ft | 443 kts | 209° |
| 2026-04-20 15:24 | -19.21919 | -40.66181 | 36001 ft | 443 kts | 209° |
| 2026-04-20 15:24 | -19.27335 | -40.69303 | 36003 ft | 443 kts | 209° |
| 2026-04-20 15:25 | -19.32745 | -40.72425 | 36001 ft | 443 kts | 209° |
| 2026-04-20 15:25 | -19.38151 | -40.75546 | 36001 ft | 443 kts | 209° |
| 2026-04-20 15:26 | -19.43559 | -40.78672 | 36001 ft | 443 kts | 209° |
| 2026-04-20 15:26 | -19.48964 | -40.81798 | 36001 ft | 443 kts | 209° |
| 2026-04-20 15:27 | -19.54376 | -40.84931 | 36007 ft | 443 kts | 209° |
| 2026-04-20 15:27 | -19.59784 | -40.88062 | 36001 ft | 443 kts | 209° |
| 2026-04-20 15:28 | -19.65204 | -40.91193 | 36000 ft | 444 kts | 209° |
| 2026-04-20 15:28 | -19.70592 | -40.94310 | 35995 ft | 444 kts | 209° |
| 2026-04-20 15:29 | -19.76024 | -40.97456 | 35997 ft | 445 kts | 209° |
| 2026-04-20 15:29 | -19.81475 | -41.00616 | 36006 ft | 447 kts | 209° |
| 2026-04-20 15:30 | -19.86932 | -41.03782 | 36006 ft | 447 kts | 209° |
| 2026-04-20 15:30 | -19.91461 | -41.06440 | 36000 ft | 447 kts | 210° |
| 2026-04-20 15:31 | -19.96896 | -41.09645 | 35996 ft | 447 kts | 210° |
| 2026-04-20 15:31 | -20.02327 | -41.12849 | 35992 ft | 446 kts | 210° |
| 2026-04-20 15:32 | -20.07743 | -41.16043 | 35997 ft | 445 kts | 210° |
| 2026-04-20 15:32 | -20.13155 | -41.19236 | 35996 ft | 444 kts | 210° |
| 2026-04-20 15:33 | -20.18565 | -41.22428 | 35998 ft | 444 kts | 210° |
| 2026-04-20 15:33 | -20.23970 | -41.25613 | 36000 ft | 445 kts | 210° |
| 2026-04-20 15:34 | -20.29356 | -41.28789 | 36003 ft | 446 kts | 210° |
| 2026-04-20 15:34 | -20.34788 | -41.31997 | 36004 ft | 447 kts | 210° |
| 2026-04-20 15:35 | -20.40240 | -41.35219 | 36005 ft | 448 kts | 210° |
| 2026-04-20 15:35 | -20.45700 | -41.38449 | 36000 ft | 449 kts | 210° |
| 2026-04-20 15:36 | -20.51174 | -41.41687 | 36005 ft | 450 kts | 209° |
| 2026-04-20 15:36 | -20.56647 | -41.44904 | 36001 ft | 449 kts | 209° |
| 2026-04-20 15:37 | -20.62116 | -41.48116 | 35995 ft | 448 kts | 209° |
| 2026-04-20 15:37 | -20.67559 | -41.51319 | 36001 ft | 446 kts | 209° |
| 2026-04-20 15:38 | -20.72978 | -41.54512 | 35996 ft | 444 kts | 209° |
| 2026-04-20 15:38 | -20.78378 | -41.57698 | 35996 ft | 442 kts | 209° |
| 2026-04-20 15:39 | -20.83760 | -41.60875 | 35996 ft | 442 kts | 209° |
| 2026-04-20 15:39 | -20.89138 | -41.64052 | 36002 ft | 442 kts | 209° |
| 2026-04-20 15:40 | -20.94524 | -41.67237 | 36007 ft | 443 kts | 209° |
| 2026-04-20 15:40 | -20.99917 | -41.70429 | 36006 ft | 444 kts | 209° |
| 2026-04-20 15:41 | -21.05290 | -41.73612 | 36006 ft | 445 kts | 210° |
| 2026-04-20 15:41 | -21.10709 | -41.76824 | 36006 ft | 445 kts | 210° |
| 2026-04-20 15:42 | -21.16124 | -41.80037 | 36004 ft | 445 kts | 210° |
| 2026-04-20 15:42 | -21.21539 | -41.83252 | 36005 ft | 445 kts | 210° |
| 2026-04-20 15:43 | -21.26950 | -41.86463 | 36000 ft | 444 kts | 210° |
| 2026-04-20 15:43 | -21.32344 | -41.89666 | 36000 ft | 443 kts | 210° |
| 2026-04-20 15:44 | -21.37733 | -41.92870 | 35999 ft | 442 kts | 210° |
| 2026-04-20 15:44 | -21.43113 | -41.96072 | 36001 ft | 442 kts | 210° |
| 2026-04-20 15:45 | -21.48485 | -41.99272 | 36001 ft | 442 kts | 210° |
| 2026-04-20 15:45 | -21.53858 | -42.02476 | 36007 ft | 441 kts | 210° |
| 2026-04-20 15:46 | -21.59228 | -42.05680 | 36002 ft | 441 kts | 210° |
| 2026-04-20 15:46 | -21.64596 | -42.08885 | 36004 ft | 441 kts | 210° |
| 2026-04-20 15:47 | -21.69957 | -42.12090 | 35999 ft | 441 kts | 210° |
| 2026-04-20 15:47 | -21.72618 | -42.13682 | 35642 ft | 447 kts | 210° |
| 2026-04-20 15:47 | -21.75338 | -42.15310 | 35106 ft | 447 kts | 210° |
| 2026-04-20 15:47 | -21.78086 | -42.16956 | 34473 ft | 447 kts | 210° |
| 2026-04-20 15:48 | -21.80770 | -42.18563 | 33840 ft | 448 kts | 210° |
| 2026-04-20 15:48 | -21.83498 | -42.20197 | 33177 ft | 449 kts | 210° |
| 2026-04-20 15:48 | -21.86224 | -42.21834 | 32450 ft | 451 kts | 210° |
| 2026-04-20 15:48 | -21.88951 | -42.23478 | 31972 ft | 447 kts | 210° |
| 2026-04-20 15:49 | -21.91657 | -42.25111 | 31449 ft | 444 kts | 210° |
| 2026-04-20 15:49 | -21.94336 | -42.26730 | 30958 ft | 441 kts | 210° |
| 2026-04-20 15:49 | -21.97006 | -42.28344 | 30466 ft | 437 kts | 210° |
| 2026-04-20 15:49 | -21.99646 | -42.29940 | 29978 ft | 434 kts | 210° |
| 2026-04-20 15:50 | -22.02271 | -42.31526 | 29489 ft | 431 kts | 210° |
| 2026-04-20 15:50 | -22.04873 | -42.33099 | 28991 ft | 427 kts | 210° |
| 2026-04-20 15:50 | -22.07448 | -42.34674 | 28489 ft | 424 kts | 213° |
| 2026-04-20 15:50 | -22.09646 | -42.36751 | 27986 ft | 419 kts | 232° |
| 2026-04-20 15:51 | -22.11139 | -42.39398 | 27631 ft | 412 kts | 248° |
| 2026-04-20 15:51 | -22.11986 | -42.42326 | 27285 ft | 406 kts | 255° |
| 2026-04-20 15:51 | -22.12681 | -42.45289 | 26921 ft | 411 kts | 256° |
| 2026-04-20 15:51 | -22.13367 | -42.48304 | 26548 ft | 416 kts | 256° |
| 2026-04-20 15:52 | -22.14061 | -42.51338 | 26165 ft | 416 kts | 256° |
| 2026-04-20 15:52 | -22.14755 | -42.54317 | 25783 ft | 413 kts | 256° |
| 2026-04-20 15:52 | -22.15461 | -42.57300 | 25410 ft | 410 kts | 256° |
| 2026-04-20 15:53 | -22.16878 | -42.63215 | 24674 ft | 404 kts | 256° |
| 2026-04-20 15:53 | -22.17582 | -42.66141 | 24302 ft | 402 kts | 256° |
| 2026-04-20 15:53 | -22.18282 | -42.69055 | 23953 ft | 399 kts | 256° |
| 2026-04-20 15:53 | -22.18975 | -42.71945 | 23592 ft | 397 kts | 256° |
| 2026-04-20 15:54 | -22.19666 | -42.74826 | 23235 ft | 395 kts | 256° |
| 2026-04-20 15:54 | -22.20351 | -42.77689 | 22880 ft | 393 kts | 256° |
| 2026-04-20 15:54 | -22.21032 | -42.80537 | 22528 ft | 391 kts | 256° |
| 2026-04-20 15:54 | -22.21709 | -42.83368 | 22173 ft | 389 kts | 256° |
| 2026-04-20 15:55 | -22.22382 | -42.86186 | 21835 ft | 387 kts | 256° |
| 2026-04-20 15:55 | -22.23051 | -42.88991 | 21520 ft | 384 kts | 256° |
| 2026-04-20 15:55 | -22.23715 | -42.91776 | 21196 ft | 382 kts | 256° |
| 2026-04-20 15:55 | -22.24374 | -42.94543 | 20873 ft | 380 kts | 256° |
| 2026-04-20 15:56 | -22.25030 | -42.97298 | 20569 ft | 378 kts | 256° |
| 2026-04-20 15:56 | -22.25681 | -43.00036 | 20251 ft | 376 kts | 256° |
| 2026-04-20 15:56 | -22.26330 | -43.02769 | 19919 ft | 375 kts | 256° |
| 2026-04-20 15:56 | -22.26979 | -43.05501 | 19494 ft | 376 kts | 256° |
| 2026-04-20 15:57 | -22.27620 | -43.08202 | 19088 ft | 375 kts | 256° |
| 2026-04-20 15:57 | -22.28266 | -43.10927 | 18663 ft | 374 kts | 256° |
| 2026-04-20 15:57 | -22.28906 | -43.13631 | 18249 ft | 370 kts | 256° |
| 2026-04-20 15:57 | -22.29540 | -43.16313 | 17839 ft | 366 kts | 256° |
| 2026-04-20 15:58 | -22.30167 | -43.18960 | 17440 ft | 362 kts | 256° |
| 2026-04-20 15:58 | -22.30785 | -43.21577 | 17037 ft | 358 kts | 256° |
| 2026-04-20 15:58 | -22.31398 | -43.24170 | 16641 ft | 355 kts | 256° |
| 2026-04-20 15:58 | -22.32004 | -43.26739 | 16248 ft | 351 kts | 256° |
| 2026-04-20 15:59 | -22.32604 | -43.29285 | 15861 ft | 348 kts | 256° |
| 2026-04-20 15:59 | -22.33197 | -43.31802 | 15476 ft | 345 kts | 256° |
| 2026-04-20 15:59 | -22.33785 | -43.34300 | 15099 ft | 342 kts | 256° |
| 2026-04-20 15:59 | -22.34367 | -43.36777 | 14724 ft | 339 kts | 256° |
| 2026-04-20 16:00 | -22.34945 | -43.39235 | 14338 ft | 337 kts | 256° |
| 2026-04-20 16:00 | -22.35520 | -43.41682 | 13970 ft | 335 kts | 256° |
| 2026-04-20 16:00 | -22.36091 | -43.44114 | 13602 ft | 333 kts | 256° |
| 2026-04-20 16:00 | -22.36760 | -43.46503 | 13224 ft | 332 kts | 244° |
| 2026-04-20 16:01 | -22.38137 | -43.48477 | 12798 ft | 333 kts | 222° |
| 2026-04-20 16:01 | -22.40073 | -43.49796 | 12285 ft | 337 kts | 204° |
| 2026-04-20 16:01 | -22.42252 | -43.50707 | 11767 ft | 335 kts | 201° |
| 2026-04-20 16:01 | -22.44426 | -43.51578 | 11227 ft | 330 kts | 201° |
| 2026-04-20 16:02 | -22.46565 | -43.52438 | 10697 ft | 325 kts | 201° |
| 2026-04-20 16:02 | -22.48648 | -43.53297 | 10410 ft | 312 kts | 202° |
| 2026-04-20 16:02 | -22.50598 | -43.54110 | 10409 ft | 291 kts | 202° |
| 2026-04-20 16:02 | -22.52440 | -43.54880 | 10282 ft | 276 kts | 202° |
| 2026-04-20 16:03 | -22.54184 | -43.55609 | 10111 ft | 263 kts | 202° |
| 2026-04-20 16:03 | -22.55919 | -43.56009 | 9983 ft | 251 kts | 176° |
| 2026-04-20 16:03 | -22.57575 | -43.55562 | 9758 ft | 243 kts | 158° |
| 2026-04-20 16:03 | -22.59102 | -43.54787 | 9353 ft | 244 kts | 154° |
| 2026-04-20 16:04 | -22.60647 | -43.53952 | 8777 ft | 251 kts | 154° |
| 2026-04-20 16:04 | -22.62212 | -43.53112 | 8194 ft | 252 kts | 155° |
| 2026-04-20 16:04 | -22.63780 | -43.52257 | 7639 ft | 253 kts | 149° |
| 2026-04-20 16:04 | -22.65020 | -43.50922 | 7092 ft | 252 kts | 125° |
| 2026-04-20 16:05 | -22.65990 | -43.49400 | 6728 ft | 244 kts | 126° |
| 2026-04-20 16:05 | -22.66952 | -43.47926 | 6252 ft | 235 kts | 126° |
| 2026-04-20 16:05 | -22.67885 | -43.46510 | 5754 ft | 227 kts | 126° |
| 2026-04-20 16:05 | -22.68794 | -43.45138 | 5250 ft | 221 kts | 126° |
| 2026-04-20 16:06 | -22.69682 | -43.43800 | 4757 ft | 216 kts | 126° |
| 2026-04-20 16:06 | -22.70537 | -43.42512 | 4282 ft | 211 kts | 127° |
| 2026-04-20 16:06 | -22.71384 | -43.41236 | 3809 ft | 204 kts | 126° |
| 2026-04-20 16:06 | -22.72174 | -43.40047 | 3677 ft | 186 kts | 127° |
| 2026-04-20 16:07 | -22.72915 | -43.38932 | 3372 ft | 181 kts | 127° |
| 2026-04-20 16:07 | -22.73649 | -43.37829 | 3021 ft | 179 kts | 127° |
| 2026-04-20 16:07 | -22.74377 | -43.36733 | 2647 ft | 179 kts | 127° |
| 2026-04-20 16:07 | -22.75100 | -43.35646 | 2324 ft | 175 kts | 127° |
| 2026-04-20 16:08 | -22.75788 | -43.34607 | 2061 ft | 167 kts | 127° |
| 2026-04-20 16:08 | -22.76467 | -43.33583 | 1689 ft | 167 kts | 127° |
| 2026-04-20 16:08 | -22.77127 | -43.32587 | 1450 ft | 160 kts | 127° |
| 2026-04-20 16:08 | -22.77757 | -43.31628 | 1273 ft | 153 kts | 127° |
| 2026-04-20 16:09 | -22.78371 | -43.30696 | 1095 ft | 154 kts | 126° |
| 2026-04-20 16:09 | -22.78981 | -43.29743 | 955 ft | 153 kts | 126° |
| 2026-04-20 16:09 | -22.79614 | -43.28802 | 716 ft | 157 kts | 127° |
| 2026-04-20 16:09 | -22.80259 | -43.27836 | 448 ft | 160 kts | 127° |
| 2026-04-20 16:10 | -22.80919 | -43.26852 | 199 ft | 160 kts | 127° |
| 2026-04-20 16:10 | -22.81563 | -43.25891 | 30 ft | 151 kts | 127° |
| 2026-04-20 16:10 | -22.82108 | -43.25062 | 26 ft | 114 kts | 125° |
| 2026-04-20 16:10 | -22.82472 | -43.24512 | 30 ft | 61 kts | 126° |
| 2026-04-20 16:11 | -22.82625 | -43.24265 | 25 ft | 18 kts | 96° |
| 2026-04-20 16:11 | -22.82554 | -43.24175 | 29 ft | 15 kts | 21° |
| 2026-04-20 16:11 | -22.82474 | -43.24236 | 27 ft | 15 kts | 306° |
| 2026-04-20 16:11 | -22.82416 | -43.24325 | 29 ft | 14 kts | 306° |
| 2026-04-20 16:12 | -22.82360 | -43.24409 | 25 ft | 14 kts | 306° |
| 2026-04-20 16:12 | -22.82293 | -43.24510 | 25 ft | 19 kts | 306° |
| 2026-04-20 16:12 | -22.82212 | -43.24632 | 27 ft | 20 kts | 306° |
| 2026-04-20 16:12 | -22.82132 | -43.24753 | 27 ft | 19 kts | 305° |
| 2026-04-20 16:13 | -22.82054 | -43.24870 | 28 ft | 19 kts | 306° |
| 2026-04-20 16:13 | -22.81980 | -43.24984 | 25 ft | 18 kts | 306° |
| 2026-04-20 16:13 | -22.81905 | -43.25096 | 25 ft | 19 kts | 306° |
| 2026-04-20 16:13 | -22.81830 | -43.25210 | 25 ft | 18 kts | 306° |
| 2026-04-20 16:14 | -22.81729 | -43.25227 | 25 ft | 17 kts | 34° |
| 2026-04-20 16:14 | -22.81637 | -43.25157 | 26 ft | 15 kts | 35° |
| 2026-04-20 16:14 | -22.81551 | -43.25092 | 28 ft | 15 kts | 35° |
| 2026-04-20 16:14 | -22.81488 | -43.25014 | 26 ft | 14 kts | 81° |
| 2026-04-20 16:15 | -22.81481 | -43.24915 | 25 ft | 13 kts | 78° |
| 2026-04-20 16:15 | -22.81460 | -43.24839 | 28 ft | 8 kts | 72° |
| 2026-04-20 16:15 | -22.81454 | -43.24818 | 28 ft | 2 kts | 72° |
| 2026-04-20 16:15 | -22.81453 | -43.24815 | 27 ft | 0 kts | 72° |